sensor_id;sensor_type;location;lat;lon;timestamp;pressure;altitude;pressure_sealevel;temperature;humidity
54882;BME280;40775;51.448;4.742;2023-07-13T00:01:56;101340.81;;;17.96;100.00
54882;BME280;40775;51.448;4.742;2023-07-13T00:04:24;101343.44;;;18.00;100.00
54882;BME280;40775;51.448;4.742;2023-07-13T00:06:52;101336.34;;;18.04;100.00
54882;BME280;40775;51.448;4.742;2023-07-13T00:09:21;101328.41;;;17.96;100.00
54882;BME280;40775;51.448;4.742;2023-07-13T00:11:56;101333.72;;;17.96;100.00
54882;BME280;40775;51.448;4.742;2023-07-13T00:14:27;101327.53;;;17.94;100.00
54882;BME280;40775;51.448;4.742;2023-07-13T00:16:55;101332.84;;;17.91;100.00
54882;BME280;40775;51.448;4.742;2023-07-13T00:19:22;101327.53;;;17.91;100.00
54882;BME280;40775;51.448;4.742;2023-07-13T00:21:49;101328.44;;;17.87;100.00
54882;BME280;40775;51.448;4.742;2023-07-13T00:24:18;101324.91;;;17.83;100.00
54882;BME280;40775;51.448;4.742;2023-07-13T00:26:51;101326.69;;;17.83;100.00
54882;BME280;40775;51.448;4.742;2023-07-13T00:29:18;101330.22;;;17.85;100.00
54882;BME280;40775;51.448;4.742;2023-07-13T00:31:48;101346.16;;;17.85;100.00
54882;BME280;40775;51.448;4.742;2023-07-13T00:34:15;101341.69;;;17.79;100.00
54882;BME280;40775;51.448;4.742;2023-07-13T00:36:42;101333.72;;;17.79;100.00
54882;BME280;40775;51.448;4.742;2023-07-13T00:39:12;101333.75;;;17.73;100.00
54882;BME280;40775;51.448;4.742;2023-07-13T00:41:42;101339.06;;;17.70;100.00
54882;BME280;40775;51.448;4.742;2023-07-13T00:44:19;101337.28;;;17.71;100.00
54882;BME280;40775;51.448;4.742;2023-07-13T00:46:46;101334.63;;;17.72;100.00
54882;BME280;40775;51.448;4.742;2023-07-13T00:49:20;101337.28;;;17.65;100.00
54882;BME280;40775;51.448;4.742;2023-07-13T00:52:02;101335.50;;;17.67;100.00
54882;BME280;40775;51.448;4.742;2023-07-13T00:54:37;101337.31;;;17.68;100.00
54882;BME280;40775;51.448;4.742;2023-07-13T00:57:09;101340.81;;;17.64;100.00
54882;BME280;40775;51.448;4.742;2023-07-13T00:59:42;101345.25;;;17.57;100.00
54882;BME280;40775;51.448;4.742;2023-07-13T01:02:10;101349.69;;;17.56;100.00
54882;BME280;40775;51.448;4.742;2023-07-13T01:04:37;101348.78;;;17.50;100.00
54882;BME280;40775;51.448;4.742;2023-07-13T01:07:06;101347.88;;;17.48;100.00
54882;BME280;40775;51.448;4.742;2023-07-13T01:09:34;101344.34;;;17.46;100.00
54882;BME280;40775;51.448;4.742;2023-07-13T01:12:02;101354.97;;;17.52;100.00
54882;BME280;40775;51.448;4.742;2023-07-13T01:14:30;101352.31;;;17.49;100.00
54882;BME280;40775;51.448;4.742;2023-07-13T01:16:57;101358.50;;;17.46;100.00
54882;BME280;40775;51.448;4.742;2023-07-13T01:19:37;101349.66;;;17.38;100.00
54882;BME280;40775;51.448;4.742;2023-07-13T01:22:10;101351.44;;;17.41;100.00
54882;BME280;40775;51.448;4.742;2023-07-13T01:24:43;101355.88;;;17.34;100.00
54882;BME280;40775;51.448;4.742;2023-07-13T01:27:14;101362.94;;;17.27;100.00
54882;BME280;40775;51.448;4.742;2023-07-13T01:29:43;101357.63;;;17.26;100.00
54882;BME280;40775;51.448;4.742;2023-07-13T01:32:16;101363.81;;;17.31;100.00
54882;BME280;40775;51.448;4.742;2023-07-13T01:34:49;101359.41;;;17.32;100.00
54882;BME280;40775;51.448;4.742;2023-07-13T01:37:17;101370.91;;;17.27;100.00
54882;BME280;40775;51.448;4.742;2023-07-13T01:39:44;101362.91;;;17.24;100.00
54882;BME280;40775;51.448;4.742;2023-07-13T01:42:11;101367.31;;;17.18;100.00
54882;BME280;40775;51.448;4.742;2023-07-13T01:44:38;101370.88;;;17.21;100.00
54882;BME280;40775;51.448;4.742;2023-07-13T01:47:05;101364.69;;;17.21;100.00
54882;BME280;40775;51.448;4.742;2023-07-13T01:49:33;101378.81;;;17.17;100.00
54882;BME280;40775;51.448;4.742;2023-07-13T01:52:00;101385.91;;;17.13;100.00
54882;BME280;40775;51.448;4.742;2023-07-13T01:54:27;101376.16;;;17.14;100.00
54882;BME280;40775;51.448;4.742;2023-07-13T01:56:54;101375.28;;;17.15;100.00
54882;BME280;40775;51.448;4.742;2023-07-13T01:59:21;101385.00;;;17.13;100.00
54882;BME280;40775;51.448;4.742;2023-07-13T02:01:48;101378.81;;;17.09;100.00
54882;BME280;40775;51.448;4.742;2023-07-13T02:04:16;101386.78;;;17.05;100.00
54882;BME280;40775;51.448;4.742;2023-07-13T02:06:43;101383.25;;;17.07;100.00
54882;BME280;40775;51.448;4.742;2023-07-13T02:09:10;101385.91;;;17.12;100.00
54882;BME280;40775;51.448;4.742;2023-07-13T02:11:37;101398.28;;;17.08;100.00
54882;BME280;40775;51.448;4.742;2023-07-13T02:14:04;101391.19;;;17.07;100.00
54882;BME280;40775;51.448;4.742;2023-07-13T02:16:31;101387.63;;;16.97;100.00
54882;BME280;40775;51.448;4.742;2023-07-13T02:18:58;101390.31;;;16.99;100.00
54882;BME280;40775;51.448;4.742;2023-07-13T02:21:27;101392.97;;;16.99;100.00
54882;BME280;40775;51.448;4.742;2023-07-13T02:23:55;101394.72;;;17.02;100.00
54882;BME280;40775;51.448;4.742;2023-07-13T02:26:22;101387.59;;;16.91;100.00
54882;BME280;40775;51.448;4.742;2023-07-13T02:28:49;101379.66;;;16.94;100.00
54882;BME280;40775;51.448;4.742;2023-07-13T02:31:16;101392.03;;;16.97;100.00
54882;BME280;40775;51.448;4.742;2023-07-13T02:33:43;101386.75;;;16.98;100.00
54882;BME280;40775;51.448;4.742;2023-07-13T02:36:13;101395.56;;;16.97;100.00
54882;BME280;40775;51.448;4.742;2023-07-13T02:38:43;101388.47;;;16.90;100.00
54882;BME280;40775;51.448;4.742;2023-07-13T02:41:10;101394.66;;;16.89;100.00
54882;BME280;40775;51.448;4.742;2023-07-13T02:43:37;101383.19;;;16.90;100.00
54882;BME280;40775;51.448;4.742;2023-07-13T02:46:05;101384.94;;;16.85;100.00
54882;BME280;40775;51.448;4.742;2023-07-13T02:48:36;101393.78;;;16.90;100.00
54882;BME280;40775;51.448;4.742;2023-07-13T02:51:05;101382.28;;;16.90;100.00
54882;BME280;40775;51.448;4.742;2023-07-13T02:53:32;101387.59;;;16.88;100.00
54882;BME280;40775;51.448;4.742;2023-07-13T02:55:59;101383.16;;;16.84;100.00
54882;BME280;40775;51.448;4.742;2023-07-13T02:58:26;101387.59;;;16.91;100.00
54882;BME280;40775;51.448;4.742;2023-07-13T03:00:55;101392.88;;;16.82;100.00
54882;BME280;40775;51.448;4.742;2023-07-13T03:03:23;101384.94;;;16.81;100.00
54882;BME280;40775;51.448;4.742;2023-07-13T03:06:02;101387.59;;;16.81;100.00
54882;BME280;40775;51.448;4.742;2023-07-13T03:08:30;101395.53;;;16.85;100.00
54882;BME280;40775;51.448;4.742;2023-07-13T03:11:10;101399.06;;;16.83;100.00
54882;BME280;40775;51.448;4.742;2023-07-13T03:13:39;101393.75;;;16.77;100.00
54882;BME280;40775;51.448;4.742;2023-07-13T03:16:08;101395.53;;;16.79;100.00
54882;BME280;40775;51.448;4.742;2023-07-13T03:18:37;101399.06;;;16.78;100.00
54882;BME280;40775;51.448;4.742;2023-07-13T03:21:05;101392.00;;;16.79;100.00
54882;BME280;40775;51.448;4.742;2023-07-13T03:23:33;101395.53;;;16.78;100.00
54882;BME280;40775;51.448;4.742;2023-07-13T03:28:30;101404.38;;;16.78;100.00
54882;BME280;40775;51.448;4.742;2023-07-13T03:31:08;101403.50;;;16.81;100.00
54882;BME280;40775;51.448;4.742;2023-07-13T03:33:37;101403.50;;;16.79;100.00
54882;BME280;40775;51.448;4.742;2023-07-13T03:36:05;101410.59;;;16.91;100.00
54882;BME280;40775;51.448;4.742;2023-07-13T03:38:33;101422.97;;;16.87;100.00
54882;BME280;40775;51.448;4.742;2023-07-13T03:41:00;101416.78;;;16.97;100.00
54882;BME280;40775;51.448;4.742;2023-07-13T03:43:27;101415.91;;;16.92;100.00
54882;BME280;40775;51.448;4.742;2023-07-13T03:45:55;101412.34;;;16.92;100.00
54882;BME280;40775;51.448;4.742;2023-07-13T03:48:22;101424.75;;;16.93;100.00
54882;BME280;40775;51.448;4.742;2023-07-13T03:50:50;101420.31;;;16.95;100.00
54882;BME280;40775;51.448;4.742;2023-07-13T03:53:17;101415.91;;;16.95;100.00
54882;BME280;40775;51.448;4.742;2023-07-13T03:55:45;101431.88;;;17.00;100.00
54882;BME280;40775;51.448;4.742;2023-07-13T03:58:38;101430.94;;;16.98;100.00
54882;BME280;40775;51.448;4.742;2023-07-13T04:01:08;101431.88;;;17.03;100.00
54882;BME280;40775;51.448;4.742;2023-07-13T04:03:36;101431.88;;;17.05;100.00
54882;BME280;40775;51.448;4.742;2023-07-13T04:06:06;101431.00;;;17.06;100.00
54882;BME280;40775;51.448;4.742;2023-07-13T04:08:35;101431.88;;;17.05;100.00
54882;BME280;40775;51.448;4.742;2023-07-13T04:11:04;101438.94;;;17.07;100.00
54882;BME280;40775;51.448;4.742;2023-07-13T04:13:31;101431.88;;;17.12;100.00
54882;BME280;40775;51.448;4.742;2023-07-13T04:15:59;101444.28;;;17.13;100.00
54882;BME280;40775;51.448;4.742;2023-07-13T04:18:26;101448.69;;;17.07;100.00
54882;BME280;40775;51.448;4.742;2023-07-13T04:20:53;101453.09;;;17.09;100.00
54882;BME280;40775;51.448;4.742;2023-07-13T04:23:20;101457.53;;;17.12;100.00
54882;BME280;40775;51.448;4.742;2023-07-13T04:25:49;101461.97;;;17.14;100.00
54882;BME280;40775;51.448;4.742;2023-07-13T04:28:22;101461.97;;;17.14;100.00
54882;BME280;40775;51.448;4.742;2023-07-13T04:30:50;101459.31;;;17.17;100.00
54882;BME280;40775;51.448;4.742;2023-07-13T04:33:17;101460.19;;;17.21;100.00
54882;BME280;40775;51.448;4.742;2023-07-13T04:35:45;101461.97;;;17.25;100.00
54882;BME280;40775;51.448;4.742;2023-07-13T04:38:14;101462.03;;;17.28;100.00
54882;BME280;40775;51.448;4.742;2023-07-13T04:40:45;101469.97;;;17.28;100.00
54882;BME280;40775;51.448;4.742;2023-07-13T04:43:12;101470.88;;;17.36;100.00
54882;BME280;40775;51.448;4.742;2023-07-13T04:45:40;101465.56;;;17.39;100.00
54882;BME280;40775;51.448;4.742;2023-07-13T04:48:07;101468.22;;;17.45;100.00
54882;BME280;40775;51.448;4.742;2023-07-13T04:50:38;101477.06;;;17.47;100.00
54882;BME280;40775;51.448;4.742;2023-07-13T04:53:05;101476.19;;;17.50;100.00
54882;BME280;40775;51.448;4.742;2023-07-13T04:55:33;101484.16;;;17.51;100.00
54882;BME280;40775;51.448;4.742;2023-07-13T04:58:00;101481.53;;;17.54;100.00
54882;BME280;40775;51.448;4.742;2023-07-13T05:00:27;101474.47;;;17.53;100.00
54882;BME280;40775;51.448;4.742;2023-07-13T05:02:56;101483.28;;;17.52;100.00
54882;BME280;40775;51.448;4.742;2023-07-13T05:05:26;101481.53;;;17.54;100.00
54882;BME280;40775;51.448;4.742;2023-07-13T05:07:53;101488.63;;;17.58;100.00
54882;BME280;40775;51.448;4.742;2023-07-13T05:10:21;101488.63;;;17.65;100.00
54882;BME280;40775;51.448;4.742;2023-07-13T05:12:48;101493.94;;;17.66;100.00
54882;BME280;40775;51.448;4.742;2023-07-13T05:15:16;101500.19;;;17.73;100.00
54882;BME280;40775;51.448;4.742;2023-07-13T05:17:48;101486.91;;;17.77;100.00
54882;BME280;40775;51.448;4.742;2023-07-13T05:20:17;101485.13;;;17.75;100.00
54882;BME280;40775;51.448;4.742;2023-07-13T05:22:45;101494.88;;;17.77;100.00
54882;BME280;40775;51.448;4.742;2023-07-13T05:25:17;101499.31;;;17.86;100.00
54882;BME280;40775;51.448;4.742;2023-07-13T05:27:44;101498.44;;;17.91;100.00
54882;BME280;40775;51.448;4.742;2023-07-13T05:30:13;101493.13;;;17.96;100.00
54882;BME280;40775;51.448;4.742;2023-07-13T05:32:41;101501.09;;;18.01;100.00
54882;BME280;40775;51.448;4.742;2023-07-13T05:35:08;101504.63;;;18.07;100.00
54882;BME280;40775;51.448;4.742;2023-07-13T05:37:38;101505.53;;;18.09;100.00
54882;BME280;40775;51.448;4.742;2023-07-13T05:40:06;101501.97;;;18.07;100.00
54882;BME280;40775;51.448;4.742;2023-07-13T05:42:33;101512.63;;;18.18;100.00
54882;BME280;40775;51.448;4.742;2023-07-13T05:45:02;101517.94;;;18.16;100.00
54882;BME280;40775;51.448;4.742;2023-07-13T05:47:29;101512.75;;;20.12;100.00
54882;BME280;40775;51.448;4.742;2023-07-13T05:49:56;101508.28;;;21.02;100.00
54882;BME280;40775;51.448;4.742;2023-07-13T05:52:23;101500.44;;;21.58;100.00
54882;BME280;40775;51.448;4.742;2023-07-13T05:54:50;101501.66;;;21.96;100.00
54882;BME280;40775;51.448;4.742;2023-07-13T05:57:17;101500.34;;;22.23;100.00
54882;BME280;40775;51.448;4.742;2023-07-13T05:59:44;101499.03;;;22.47;100.00
54882;BME280;40775;51.448;4.742;2023-07-13T06:02:13;101509.44;;;22.62;100.00
54882;BME280;40775;51.448;4.742;2023-07-13T06:04:40;101511.78;;;22.79;100.00
54882;BME280;40775;51.448;4.742;2023-07-13T06:07:07;101508.88;;;22.93;100.00
54882;BME280;40775;51.448;4.742;2023-07-13T06:09:34;101518.47;;;23.04;100.00
54882;BME280;40775;51.448;4.742;2023-07-13T06:12:01;101511.16;;;23.12;100.00
54882;BME280;40775;51.448;4.742;2023-07-13T06:14:28;101519.84;;;23.22;100.00
54882;BME280;40775;51.448;4.742;2023-07-13T06:16:55;101510.75;;;23.31;100.00
54882;BME280;40775;51.448;4.742;2023-07-13T06:19:23;101517.75;;;23.38;100.00
54882;BME280;40775;51.448;4.742;2023-07-13T06:21:50;101517.56;;;23.46;100.00
54882;BME280;40775;51.448;4.742;2023-07-13T06:24:17;101508.50;;;23.51;100.00
54882;BME280;40775;51.448;4.742;2023-07-13T06:26:44;101515.56;;;23.55;100.00
54882;BME280;40775;51.448;4.742;2023-07-13T06:29:11;101513.72;;;23.60;100.00
54882;BME280;40775;51.448;4.742;2023-07-13T06:31:38;101518.06;;;23.64;100.00
54882;BME280;40775;51.448;4.742;2023-07-13T06:34:05;101516.16;;;23.69;100.00
54882;BME280;40775;51.448;4.742;2023-07-13T06:36:32;101513.41;;;23.72;100.00
54882;BME280;40775;51.448;4.742;2023-07-13T06:39:00;101516.91;;;23.76;100.00
54882;BME280;40775;51.448;4.742;2023-07-13T06:41:27;101517.69;;;23.80;100.00
54882;BME280;40775;51.448;4.742;2023-07-13T06:43:54;101509.59;;;23.83;100.00
54882;BME280;40775;51.448;4.742;2023-07-13T06:46:22;101513.13;;;23.85;100.00
54882;BME280;40775;51.448;4.742;2023-07-13T06:48:50;101511.34;;;23.85;100.00
54882;BME280;40775;51.448;4.742;2023-07-13T06:51:17;101517.50;;;23.89;100.00
54882;BME280;40775;51.448;4.742;2023-07-13T06:53:44;101513.06;;;23.88;100.00
54882;BME280;40775;51.448;4.742;2023-07-13T06:56:11;101518.34;;;23.91;100.00
54882;BME280;40775;51.448;4.742;2023-07-13T06:58:39;101519.19;;;23.93;100.00
54882;BME280;40775;51.448;4.742;2023-07-13T07:01:06;101521.88;;;23.93;100.00
54882;BME280;40775;51.448;4.742;2023-07-13T07:03:34;101514.66;;;23.95;100.00
54882;BME280;40775;51.448;4.742;2023-07-13T07:06:21;101521.75;;;23.97;100.00
54882;BME280;40775;51.448;4.742;2023-07-13T07:08:52;101523.56;;;23.97;100.00
54882;BME280;40775;51.448;4.742;2023-07-13T07:11:24;101525.25;;;24.01;100.00
54882;BME280;40775;51.448;4.742;2023-07-13T07:13:52;101521.69;;;24.00;100.00
54882;BME280;40775;51.448;4.742;2023-07-13T07:16:21;101524.28;;;24.03;100.00
54882;BME280;40775;51.448;4.742;2023-07-13T07:18:48;101534.00;;;24.08;100.00
54882;BME280;40775;51.448;4.742;2023-07-13T07:21:16;101528.66;;;24.08;100.00
54882;BME280;40775;51.448;4.742;2023-07-13T07:23:43;101517.94;;;24.06;100.00
54882;BME280;40775;51.448;4.742;2023-07-13T07:26:10;101535.78;;;24.09;100.00
54882;BME280;40775;51.448;4.742;2023-07-13T07:28:38;101540.22;;;24.11;100.00
54882;BME280;40775;51.448;4.742;2023-07-13T07:31:12;101540.19;;;24.13;100.00
54882;BME280;40775;51.448;4.742;2023-07-13T07:33:42;101540.13;;;24.14;100.00
54882;BME280;40775;51.448;4.742;2023-07-13T07:36:10;101539.22;;;24.15;100.00
54882;BME280;40775;51.448;4.742;2023-07-13T07:38:42;101538.28;;;24.16;100.00
54882;BME280;40775;51.448;4.742;2023-07-13T07:41:09;101546.34;;;24.16;100.00
54882;BME280;40775;51.448;4.742;2023-07-13T07:43:39;101548.09;;;24.17;100.00
54882;BME280;40775;51.448;4.742;2023-07-13T07:46:06;101547.19;;;24.18;100.00
54882;BME280;40775;51.448;4.742;2023-07-13T07:48:34;101541.78;;;24.20;100.00
54882;BME280;40775;51.448;4.742;2023-07-13T07:51:01;101542.69;;;24.19;100.00
54882;BME280;40775;51.448;4.742;2023-07-13T07:53:28;101546.25;;;24.19;100.00
54882;BME280;40775;51.448;4.742;2023-07-13T07:55:58;101543.53;;;24.21;100.00
54882;BME280;40775;51.448;4.742;2023-07-13T07:58:46;101548.91;;;24.21;100.00
54882;BME280;40775;51.448;4.742;2023-07-13T08:01:15;101543.53;;;24.21;100.00
54882;BME280;40775;51.448;4.742;2023-07-13T08:03:46;101554.22;;;24.22;100.00
54882;BME280;40775;51.448;4.742;2023-07-13T08:06:16;101547.94;;;24.23;100.00
54882;BME280;40775;51.448;4.742;2023-07-13T08:09:03;101547.03;;;24.24;100.00
54882;BME280;40775;51.448;4.742;2023-07-13T08:11:31;101547.03;;;24.24;100.00
54882;BME280;40775;51.448;4.742;2023-07-13T08:14:01;101543.38;;;24.27;100.00
54882;BME280;40775;51.448;4.742;2023-07-13T08:16:28;101545.19;;;24.26;100.00
54882;BME280;40775;51.448;4.742;2023-07-13T08:18:55;101550.53;;;24.26;100.00
54882;BME280;40775;51.448;4.742;2023-07-13T08:21:22;101551.44;;;24.27;100.00
54882;BME280;40775;51.448;4.742;2023-07-13T08:23:50;101554.94;;;24.30;100.00
54882;BME280;40775;51.448;4.742;2023-07-13T08:26:17;101554.91;;;24.32;100.00
54882;BME280;40775;51.448;4.742;2023-07-13T08:28:44;101562.16;;;24.28;100.00
54882;BME280;40775;51.448;4.742;2023-07-13T08:31:11;101546.06;;;24.27;100.00
54882;BME280;40775;51.448;4.742;2023-07-13T08:33:38;101552.31;;;24.27;100.00
54882;BME280;40775;51.448;4.742;2023-07-13T08:36:08;101559.44;;;24.30;100.00
54882;BME280;40775;51.448;4.742;2023-07-13T08:38:35;101561.22;;;24.29;100.00
54882;BME280;40775;51.448;4.742;2023-07-13T08:41:15;101554.94;;;24.30;100.00
54882;BME280;40775;51.448;4.742;2023-07-13T08:43:50;101553.16;;;24.31;100.00
54882;BME280;40775;51.448;4.742;2023-07-13T08:46:27;101553.16;;;24.31;100.00
54882;BME280;40775;51.448;4.742;2023-07-13T08:49:10;101548.63;;;24.33;100.00
54882;BME280;40775;51.448;4.742;2023-07-13T08:51:47;101552.13;;;24.35;100.00
54882;BME280;40775;51.448;4.742;2023-07-13T08:54:28;101546.78;;;24.35;100.00
54882;BME280;40775;51.448;4.742;2023-07-13T08:57:00;101542.31;;;24.34;100.00
54882;BME280;40775;51.448;4.742;2023-07-13T08:59:31;101542.31;;;24.34;100.00
54882;BME280;40775;51.448;4.742;2023-07-13T09:05:17;101540.09;;;24.51;100.00
54882;BME280;40775;51.448;4.742;2023-07-13T09:14:12;101541.28;;;24.41;100.00
54882;BME280;40775;51.448;4.742;2023-07-13T09:16:48;101544.00;;;24.40;100.00
54882;BME280;40775;51.448;4.742;2023-07-13T09:19:26;101540.44;;;24.39;100.00
54882;BME280;40775;51.448;4.742;2023-07-13T09:21:56;101535.94;;;24.40;100.00
54882;BME280;40775;51.448;4.742;2023-07-13T09:24:41;101543.06;;;24.41;100.00
54882;BME280;40775;51.448;4.742;2023-07-13T09:27:27;101544.84;;;24.42;100.00
54882;BME280;40775;51.448;4.742;2023-07-13T09:32:51;101549.03;;;24.52;100.00
54882;BME280;40775;51.448;4.742;2023-07-13T09:35:27;101549.19;;;24.46;100.00
54882;BME280;40775;51.448;4.742;2023-07-13T09:38:19;101559.06;;;24.45;100.00
54882;BME280;40775;51.448;4.742;2023-07-13T09:41:25;101559.97;;;24.44;100.00
54882;BME280;40775;51.448;4.742;2023-07-13T09:44:14;101567.13;;;24.45;100.00
54882;BME280;40775;51.448;4.742;2023-07-13T09:46:55;101570.72;;;24.44;100.00
54882;BME280;40775;51.448;4.742;2023-07-13T09:49:34;101566.22;;;24.45;100.00
54882;BME280;40775;51.448;4.742;2023-07-13T09:52:06;101564.34;;;24.48;100.00
54882;BME280;40775;51.448;4.742;2023-07-13T09:54:36;101559.03;;;24.47;100.00
54882;BME280;40775;51.448;4.742;2023-07-13T09:57:14;101549.16;;;24.47;100.00
54882;BME280;40775;51.448;4.742;2023-07-13T09:59:49;101565.22;;;24.49;100.00
54882;BME280;40775;51.448;4.742;2023-07-13T10:02:34;101563.38;;;24.51;100.00
54882;BME280;40775;51.448;4.742;2023-07-13T10:05:06;101564.25;;;24.51;100.00
54882;BME280;40775;51.448;4.742;2023-07-13T10:07:41;101570.31;;;24.59;100.00
54882;BME280;40775;51.448;4.742;2023-07-13T10:10:21;101573.91;;;24.58;100.00
54882;BME280;40775;51.448;4.742;2023-07-13T10:12:50;101571.34;;;24.54;100.00
54882;BME280;40775;51.448;4.742;2023-07-13T10:15:24;101570.84;;;24.74;100.00
54882;BME280;40775;51.448;4.742;2023-07-13T10:17:54;101572.25;;;24.87;100.00
54882;BME280;40775;51.448;4.742;2023-07-13T10:20:23;101575.03;;;24.84;100.00
54882;BME280;40775;51.448;4.742;2023-07-13T10:23:11;101572.41;;;25.15;100.00
54882;BME280;40775;51.448;4.742;2023-07-13T10:25:43;101567.47;;;24.98;100.00
54882;BME280;40775;51.448;4.742;2023-07-13T10:28:36;101571.81;;;25.04;100.00
54882;BME280;40775;51.448;4.742;2023-07-13T10:31:12;101585.81;;;24.82;100.00
54882;BME280;40775;51.448;4.742;2023-07-13T10:33:40;101580.47;;;24.81;100.00
54882;BME280;40775;51.448;4.742;2023-07-13T10:36:33;101569.16;;;25.04;100.00
54882;BME280;40775;51.448;4.742;2023-07-13T10:39:04;101574.94;;;25.19;100.00
54882;BME280;40775;51.448;4.742;2023-07-13T10:41:38;101547.41;;;25.11;100.00
54882;BME280;40775;51.448;4.742;2023-07-13T10:44:21;101550.38;;;25.33;100.00
54882;BME280;40775;51.448;4.742;2023-07-13T10:46:49;101552.91;;;25.38;100.00
54882;BME280;40775;51.448;4.742;2023-07-13T10:49:17;101558.44;;;25.33;100.00
54882;BME280;40775;51.448;4.742;2023-07-13T10:51:45;101567.94;;;25.45;100.00
54882;BME280;40775;51.448;4.742;2023-07-13T10:54:21;101571.50;;;25.45;100.00
54882;BME280;40775;51.448;4.742;2023-07-13T10:57:14;101569.41;;;25.25;100.00
54882;BME280;40775;51.448;4.742;2023-07-13T11:00:13;101588.00;;;25.02;100.00
54882;BME280;40775;51.448;4.742;2023-07-13T11:02:44;101581.06;;;24.93;100.00
54882;BME280;40775;51.448;4.742;2023-07-13T11:05:31;101586.88;;;24.77;100.00
54882;BME280;40775;51.448;4.742;2023-07-13T11:08:35;101591.31;;;24.78;100.00
54882;BME280;40775;51.448;4.742;2023-07-13T11:11:35;101584.13;;;25.12;100.00
54882;BME280;40775;51.448;4.742;2023-07-13T11:15:00;101580.41;;;25.47;100.00
54882;BME280;40775;51.448;4.742;2023-07-13T11:23:18;101579.66;;;26.01;100.00
54882;BME280;40775;51.448;4.742;2023-07-13T11:25:46;101565.19;;;26.05;100.00
54882;BME280;40775;51.448;4.742;2023-07-13T11:28:23;101556.81;;;25.86;100.00
54882;BME280;40775;51.448;4.742;2023-07-13T11:36:15;101543.25;;;26.17;100.00
54882;BME280;40775;51.448;4.742;2023-07-13T11:38:47;101544.47;;;26.62;100.00
54882;BME280;40775;51.448;4.742;2023-07-13T11:41:27;101552.50;;;26.37;100.00
54882;BME280;40775;51.448;4.742;2023-07-13T11:44:16;101564.28;;;26.34;100.00
54882;BME280;40775;51.448;4.742;2023-07-13T11:46:50;101563.56;;;26.54;100.00
54882;BME280;40775;51.448;4.742;2023-07-13T11:49:25;101564.69;;;26.21;100.00
54882;BME280;40775;51.448;4.742;2023-07-13T11:51:57;101558.38;;;26.22;100.00
54882;BME280;40775;51.448;4.742;2023-07-13T11:54:34;101566.38;;;26.51;100.00
54882;BME280;40775;51.448;4.742;2023-07-13T11:57:31;101568.09;;;26.26;100.00
54882;BME280;40775;51.448;4.742;2023-07-13T12:00:15;101577.84;;;26.56;100.00
54882;BME280;40775;51.448;4.742;2023-07-13T12:02:52;101580.75;;;26.50;100.00
54882;BME280;40775;51.448;4.742;2023-07-13T12:05:20;101581.25;;;26.63;100.00
54882;BME280;40775;51.448;4.742;2023-07-13T12:07:50;101584.88;;;26.62;100.00
54882;BME280;40775;51.448;4.742;2023-07-13T12:10:27;101586.97;;;26.52;100.00
54882;BME280;40775;51.448;4.742;2023-07-13T12:13:08;101589.41;;;26.33;100.00
54882;BME280;40775;51.448;4.742;2023-07-13T12:15:44;101592.78;;;26.40;100.00
54882;BME280;40775;51.448;4.742;2023-07-13T12:18:22;101593.81;;;26.08;100.00
54882;BME280;40775;51.448;4.742;2023-07-13T12:20:51;101627.91;;;25.48;100.00
54882;BME280;40775;51.448;4.742;2023-07-13T12:23:35;101622.00;;;24.69;100.00
54882;BME280;40775;51.448;4.742;2023-07-13T12:26:06;101633.09;;;24.88;100.00
54882;BME280;40775;51.448;4.742;2023-07-13T12:28:52;101630.16;;;24.63;100.00
54882;BME280;40775;51.448;4.742;2023-07-13T12:31:36;101638.09;;;24.69;100.00
54882;BME280;40775;51.448;4.742;2023-07-13T12:34:14;101627.81;;;24.51;100.00
54882;BME280;40775;51.448;4.742;2023-07-13T12:36:56;101624.22;;;24.52;100.00
54882;BME280;40775;51.448;4.742;2023-07-13T12:39:44;101628.09;;;24.40;100.00
54882;BME280;40775;51.448;4.742;2023-07-13T12:42:30;101615.38;;;24.47;100.00
54882;BME280;40775;51.448;4.742;2023-07-13T12:47:50;101618.22;;;24.41;100.00
54882;BME280;40775;51.448;4.742;2023-07-13T12:50:24;101621.03;;;24.34;100.00
54882;BME280;40775;51.448;4.742;2023-07-13T12:53:02;101619.06;;;24.43;100.00
54882;BME280;40775;51.448;4.742;2023-07-13T12:55:44;101617.50;;;24.32;100.00
54882;BME280;40775;51.448;4.742;2023-07-13T12:58:39;101622.75;;;24.37;100.00
54882;BME280;40775;51.448;4.742;2023-07-13T13:01:14;101626.25;;;24.42;100.00
54882;BME280;40775;51.448;4.742;2023-07-13T13:03:51;101619.06;;;24.43;100.00
54882;BME280;40775;51.448;4.742;2023-07-13T13:08:48;101620.75;;;24.47;100.00
54882;BME280;40775;51.448;4.742;2023-07-13T13:11:16;101617.28;;;24.43;100.00
54882;BME280;40775;51.448;4.742;2023-07-13T13:13:47;101609.94;;;24.50;100.00
54882;BME280;40775;51.448;4.742;2023-07-13T13:16:21;101616.34;;;24.44;100.00
54882;BME280;40775;51.448;4.742;2023-07-13T13:18:51;101624.31;;;24.47;100.00
54882;BME280;40775;51.448;4.742;2023-07-13T13:21:19;101620.41;;;24.60;100.00
54882;BME280;40775;51.448;4.742;2023-07-13T13:23:47;101622.91;;;24.68;100.00
54882;BME280;40775;51.448;4.742;2023-07-13T13:26:15;101622.03;;;25.02;100.00
54882;BME280;40775;51.448;4.742;2023-07-13T13:28:43;101617.03;;;24.86;100.00
54882;BME280;40775;51.448;4.742;2023-07-13T13:31:12;101620.50;;;24.90;100.00
54882;BME280;40775;51.448;4.742;2023-07-13T13:33:41;101618.22;;;25.10;100.00
54882;BME280;40775;51.448;4.742;2023-07-13T13:36:22;101616.19;;;24.84;100.00